Time;durP1;ratioP1;P1;durP2;ratioP2;P2;SDS_P1;SDS_P2;PMS_P1;PMS_P2;Temp;Humidity;BMP_temperature;BMP_pressure;BME280_temperature;BME280_humidity;BME280_pressure;Samples;Min_cycle;Max_cycle;Signal;HPM_P1;HPM_P2
2021/05/28 00:05:25;;;;;;;;;;;;;;;;;;;;;
2021/05/28 00:11:25;;;;;;;12.37;8.30;;;11.00;70.70;;;;;;4993446;28;20210;-83
2021/05/28 00:24:19;;;;;;;15.90;9.60;;;11.00;76.10;;;;;;4975891;28;20661;-84
2021/05/28 00:31:39;;;;;;;;;;;;;;;;;;;;;
2021/05/28 00:34:37;;;;;;;17.73;9.73;;;11.00;74.30;;;;;;4897584;29;20198;-84
2021/05/28 00:38:14;;;;;;;;;;;;;;;;;;;;;
2021/05/28 01:17:01;;;;;;;;;;;;;;;;;;;;;
2021/05/28 01:27:51;;;;;;;19.30;13.13;;;10.80;89.10;;;;;;4710590;30;20209;-84
2021/05/28 01:30:58;;;;;;;24.70;13.77;;;10.80;90.70;;;;;;4719220;30;20663;-84
2021/05/28 01:43:21;;;;;;;17.70;12.87;;;10.70;93.30;;;;;;4918971;29;20232;-83
2021/05/28 01:46:12;;;;;;;17.83;12.50;;;10.70;92.70;;;;;;4916434;28;20196;-83
2021/05/28 01:49:32;;;;;;;;;;;;;;;;;;;;;
2021/05/28 01:52:45;;;;;;;18.93;12.90;;;10.50;95.20;;;;;;4990761;28;20225;-83
2021/05/28 02:00:02;;;;;;;;;;;;;;;;;;;;;
2021/05/28 02:03:25;;;;;;;17.10;12.87;;;10.60;94.40;;;;;;5005997;28;20365;-83
2021/05/28 02:09:32;;;;;;;21.50;14.97;;;10.60;95.20;;;;;;5017911;28;20257;-84
2021/05/28 02:19:00;;;;;;;19.43;12.93;;;10.50;95.50;;;;;;5016417;28;20280;-84
2021/05/28 03:18:18;;;;;;;22.47;15.93;;;10.00;99.90;;;;;;4778206;29;20269;-83
2021/05/28 03:25:09;;;;;;;22.37;17.13;;;10.00;99.90;;;;;;4760844;30;20195;-82
2021/05/28 03:28:08;;;;;;;30.47;16.37;;;10.10;99.90;;;;;;4811807;29;20188;-84
2021/05/28 03:31:34;;;;;;;23.70;17.50;;;10.20;99.90;;;;;;4853831;29;20237;-83
2021/05/28 03:39:56;;;;;;;22.60;16.00;;;10.20;99.90;;;;;;4916704;29;20220;-83
2021/05/28 03:42:50;;;;;;;23.10;16.97;;;10.20;99.90;;;;;;4948612;28;20276;-82
2021/05/28 03:53:19;;;;;;;22.47;16.27;;;10.40;99.90;;;;;;4860750;29;20294;-82
2021/05/28 03:56:32;;;;;;;;;;;;;;;;;;;;;
2021/05/28 03:59:29;;;;;;;25.30;16.67;;;10.30;99.90;;;;;;4922790;29;20264;-82
2021/05/28 04:02:22;;;;;;;21.47;17.40;;;10.40;99.90;;;;;;4916439;29;20268;-82
2021/05/28 04:09:15;;;;;;;;;;;;;;;;;;;;;
2021/05/28 04:15:23;;;;;;;22.63;17.67;;;10.20;99.90;;;;;;4935507;28;20208;-84
2021/05/28 04:18:17;;;;;;;21.17;17.27;;;10.30;99.90;;;;;;4906799;29;20635;-83
2021/05/28 04:20:59;;;;;;;22.07;17.83;;;10.40;99.90;;;;;;4916677;29;20252;-83
2021/05/28 04:30:03;;;;;;;25.93;18.83;;;10.50;99.90;;;;;;4975956;28;20186;-83
2021/05/28 04:33:09;;;;;;;25.73;18.10;;;10.50;99.90;;;;;;5024454;28;20189;-82
2021/05/28 04:35:52;;;;;;;24.30;17.27;;;10.60;99.90;;;;;;5034032;28;20193;-83
2021/05/28 04:38:37;;;;;;;24.87;17.57;;;10.60;99.90;;;;;;5018385;28;20181;-83
2021/05/28 04:41:06;;;;;;;27.67;18.10;;;10.70;99.90;;;;;;5018630;28;20162;-83
2021/05/28 04:43:38;;;;;;;22.93;16.83;;;10.80;99.50;;;;;;5018867;28;20256;-84
2021/05/28 04:46:19;;;;;;;25.77;17.23;;;10.90;98.90;;;;;;5019878;28;20587;-83
2021/05/28 04:48:45;;;;;;;21.07;16.40;;;11.00;97.60;;;;;;5019344;28;20177;-83
2021/05/28 04:51:15;;;;;;;23.97;16.50;;;10.90;96.80;;;;;;5020093;28;20166;-84
2021/05/28 04:53:41;;;;;;;24.97;17.77;;;11.00;96.80;;;;;;5019689;28;20174;-84
2021/05/28 04:56:09;;;;;;;21.83;16.47;;;11.00;96.80;;;;;;5035724;28;20178;-83
2021/05/28 04:59:21;;;;;;;22.37;16.10;;;11.00;96.70;;;;;;5029984;28;20220;-84
2021/05/28 05:01:47;;;;;;;21.37;16.60;;;11.20;95.80;;;;;;5018556;28;20684;-83
2021/05/28 05:04:13;;;;;;;24.90;17.70;;;11.20;94.40;;;;;;5019160;28;20250;-84
2021/05/28 05:09:34;;;;;;;24.67;18.30;;;11.30;91.60;;;;;;5030582;28;20209;-83
2021/05/28 05:12:37;;;;;;;23.67;17.00;;;11.20;91.90;;;;;;5020767;28;20173;-83
2021/05/28 05:16:20;;;;;;;;;;;;;;;;;;;;;
2021/05/28 05:18:51;;;;;;;20.30;16.90;;;11.10;92.20;;;;;;4997752;28;20195;-84
2021/05/28 05:25:11;;;;;;;22.63;17.20;;;11.10;93.10;;;;;;4930978;29;20599;-83
2021/05/28 05:30:53;;;;;;;25.37;17.07;;;11.20;93.50;;;;;;4934514;29;20640;-83
2021/05/28 05:33:19;;;;;;;20.30;16.30;;;11.30;93.10;;;;;;4941904;29;20180;-83
2021/05/28 05:35:48;;;;;;;19.43;15.87;;;11.40;92.60;;;;;;5004981;28;20178;-83
2021/05/28 05:38:50;;;;;;;20.27;13.97;;;11.60;91.70;;;;;;5025259;28;20689;-82
2021/05/28 05:41:27;;;;;;;17.03;11.57;;;11.80;88.70;;;;;;5015772;28;20699;-83
2021/05/28 05:44:07;;;;;;;19.83;11.53;;;11.90;82.80;;;;;;5018518;28;20755;-83
2021/05/28 05:50:31;;;;;;;13.47;9.67;;;12.20;76.10;;;;;;4900020;29;20187;-82
2021/05/28 05:56:31;;;;;;;10.97;7.70;;;12.10;72.20;;;;;;5017070;28;20216;-83
2021/05/28 06:01:49;;;;;;;15.47;9.17;;;12.20;64.80;;;;;;5016305;28;20247;-82
2021/05/28 06:04:22;;;;;;;15.03;8.83;;;12.20;63.10;;;;;;5014947;28;20712;-82
2021/05/28 06:07:44;;;;;;;15.57;7.93;;;12.20;62.30;;;;;;5015511;28;20190;-82
2021/05/28 06:21:36;;;;;;;11.97;7.87;;;12.40;45.70;;;;;;4767832;29;20238;-82
2021/05/28 06:24:45;;;;;;;11.03;7.43;;;12.50;42.40;;;;;;4752909;30;20296;-81
2021/05/28 06:27:48;;;;;;;19.53;8.87;;;12.80;34.60;;;;;;4806921;29;20211;-82
2021/05/28 06:41:18;;;;;;;10.87;7.47;;;14.00;1.00;;;;;;4911739;29;20187;-81
2021/05/28 06:44:24;;;;;;;10.83;6.30;;;13.90;1.00;;;;;;4860766;29;20441;-82
2021/05/28 06:46:57;;;;;;;12.17;6.37;;;13.80;1.00;;;;;;4879299;29;20605;-81
2021/05/28 06:49:53;;;;;;;10.57;5.77;;;13.90;1.00;;;;;;4931173;29;20196;-82
2021/05/28 06:52:47;;;;;;;9.07;4.53;;;14.10;1.00;;;;;;4935553;29;20199;-83
2021/05/28 06:55:39;;;;;;;10.70;5.23;;;13.90;1.00;;;;;;4987176;28;20183;-81
2021/05/28 06:58:23;;;;;;;11.97;4.40;;;13.90;1.00;;;;;;5010049;28;20188;-81
2021/05/28 07:00:50;;;;;;;10.13;4.87;;;13.80;1.00;;;;;;5005256;28;20163;-81
2021/05/28 07:03:31;;;;;;;8.03;5.07;;;13.80;1.00;;;;;;4996485;28;20207;-81
2021/05/28 07:06:28;;;;;;;;;;;;;;;;;;;;;
2021/05/28 07:12:43;;;;;;;13.57;5.03;;;13.70;1.00;;;;;;5017038;28;20193;-82
2021/05/28 07:15:38;;;;;;;6.90;4.90;;;13.90;1.00;;;;;;5001774;28;20290;-87
2021/05/28 07:21:38;;;;;;;9.57;5.20;;;14.40;1.00;;;;;;4986372;28;20192;-81
2021/05/28 07:27:58;;;;;;;9.07;5.77;;;14.00;1.00;;;;;;4991023;28;20243;-82
2021/05/28 07:30:53;;;;;;;11.00;6.20;;;14.20;1.00;;;;;;4992913;28;20187;-82
2021/05/28 07:37:07;;;;;;;12.60;7.50;;;14.50;1.00;;;;;;4990968;28;20696;-82
2021/05/28 07:39:44;;;;;;;12.17;6.97;;;14.50;1.00;;;;;;4975845;28;20179;-81
2021/05/28 07:42:19;;;;;;;11.60;7.33;;;14.40;1.00;;;;;;4989430;28;20181;-82
2021/05/28 07:44:46;;;;;;;10.40;7.33;;;14.50;1.00;;;;;;4996936;28;20198;-83
2021/05/28 07:47:13;;;;;;;12.23;7.43;;;14.70;1.00;;;;;;4990182;28;20230;-81
2021/05/28 07:49:40;;;;;;;10.33;6.13;;;15.00;1.00;;;;;;4995061;28;20177;-82
2021/05/28 07:52:09;;;;;;;12.23;6.40;;;15.00;1.00;;;;;;4990921;28;20266;-82
2021/05/28 07:54:36;;;;;;;9.03;6.47;;;15.10;1.00;;;;;;4991535;28;20718;-82
2021/05/28 07:57:03;;;;;;;11.07;5.73;;;15.00;1.00;;;;;;4993269;28;20187;-81
2021/05/28 07:59:30;;;;;;;9.40;5.53;;;14.80;1.00;;;;;;4993335;28;20219;-83
2021/05/28 08:01:56;;;;;;;12.00;4.97;;;14.70;1.00;;;;;;4992740;28;20202;-81
2021/05/28 08:04:22;;;;;;;7.03;4.03;;;14.70;1.00;;;;;;4993860;28;20174;-81
2021/05/28 08:06:48;;;;;;;8.63;4.93;;;14.80;1.00;;;;;;4993613;28;20192;-81
2021/05/28 08:09:14;;;;;;;10.17;5.20;;;14.70;1.00;;;;;;4996926;28;20256;-81
2021/05/28 08:11:40;;;;;;;8.37;5.27;;;14.70;1.00;;;;;;4993397;28;20170;-82
2021/05/28 08:14:06;;;;;;;11.63;5.77;;;15.00;99.90;;;;;;4996214;28;20205;-81
2021/05/28 08:16:32;;;;;;;10.93;5.27;;;14.90;99.90;;;;;;4993541;28;20206;-81
2021/05/28 08:18:57;;;;;;;5.67;3.90;;;15.30;99.90;;;;;;5008665;28;20747;-81
2021/05/28 08:21:23;;;;;;;6.97;3.87;;;15.10;1.00;;;;;;4993221;28;20227;-81
2021/05/28 08:23:49;;;;;;;7.07;4.03;;;14.80;14.10;;;;;;4992723;28;20817;-81
2021/05/28 08:26:14;;;;;;;13.93;5.50;;;14.80;99.90;;;;;;4993177;28;20259;-81
2021/05/28 08:28:40;;;;;;;10.47;5.00;;;14.80;99.90;;;;;;4992529;28;20554;-82
2021/05/28 08:31:07;;;;;;;9.47;5.03;;;14.80;99.90;;;;;;4993602;28;20623;-80
2021/05/28 08:33:34;;;;;;;7.63;4.53;;;15.10;99.90;;;;;;4996416;28;20702;-80
2021/05/28 08:36:00;;;;;;;9.37;4.20;;;15.30;1.00;;;;;;4994627;28;20159;-81
2021/05/28 08:38:26;;;;;;;7.13;4.23;;;15.60;99.90;;;;;;4994245;28;20175;-82
2021/05/28 08:40:52;;;;;;;6.57;4.23;;;15.70;1.00;;;;;;4995097;28;20234;-81
2021/05/28 08:43:18;;;;;;;6.73;3.33;;;15.40;1.00;;;;;;4993801;28;20233;-81
2021/05/28 08:45:46;;;;;;;6.00;3.93;;;15.30;99.90;;;;;;4993449;28;20168;-81
2021/05/28 08:48:17;;;;;;;8.00;4.33;;;15.10;1.00;;;;;;4993354;28;20168;-81
2021/05/28 08:50:45;;;;;;;9.03;4.20;;;15.10;99.90;;;;;;4993870;28;20170;-82
2021/05/28 08:53:12;;;;;;;8.40;4.83;;;15.00;99.90;;;;;;4994236;28;20654;-82
2021/05/28 08:55:40;;;;;;;9.43;5.00;;;15.00;1.00;;;;;;4995228;28;20175;-81
2021/05/28 08:58:06;;;;;;;7.40;3.70;;;15.00;99.90;;;;;;4995692;28;20172;-81
2021/05/28 09:00:33;;;;;;;6.00;3.27;;;15.10;99.90;;;;;;4996277;28;20245;-82
2021/05/28 09:03:26;;;;;;;6.63;3.63;;;15.50;99.90;;;;;;4995744;28;20202;-81
2021/05/28 09:05:56;;;;;;;4.87;3.33;;;15.60;99.90;;;;;;4999954;28;20189;-80
2021/05/28 09:08:33;;;;;;;8.13;3.03;;;15.80;1.00;;;;;;4998885;28;20168;-80
2021/05/28 09:11:14;;;;;;;8.50;3.47;;;15.70;99.90;;;;;;5005893;28;20189;-82
2021/05/28 09:13:51;;;;;;;8.53;3.83;;;15.60;99.90;;;;;;5003679;28;20188;-81
2021/05/28 09:16:19;;;;;;;7.17;3.80;;;15.50;1.00;;;;;;5000675;28;20178;-78
2021/05/28 09:18:58;;;;;;;5.07;2.80;;;15.30;99.90;;;;;;4998411;28;20216;-80
2021/05/28 09:21:29;;;;;;;7.10;2.87;;;15.40;99.90;;;;;;5010989;28;20188;-80
2021/05/28 09:23:55;;;;;;;5.50;2.87;;;15.40;1.00;;;;;;4994400;28;20698;-78
2021/05/28 09:26:23;;;;;;;7.83;3.60;;;15.60;99.90;;;;;;4997320;28;20186;-80
2021/05/28 09:28:50;;;;;;;8.17;3.47;;;15.70;99.90;;;;;;4997506;28;20174;-78
2021/05/28 09:31:24;;;;;;;5.37;3.13;;;15.60;99.90;;;;;;4997379;28;20204;-81
2021/05/28 09:33:53;;;;;;;8.00;3.43;;;15.40;1.00;;;;;;4999098;28;20234;-81
2021/05/28 09:36:27;;;;;;;6.37;3.80;;;15.50;1.00;;;;;;4987434;28;20160;-78
2021/05/28 09:39:08;;;;;;;10.63;3.73;;;15.70;99.90;;;;;;5003162;28;20204;-80
2021/05/28 09:41:43;;;;;;;6.50;3.37;;;16.10;1.00;;;;;;5009864;28;20167;-79
2021/05/28 09:44:19;;;;;;;5.77;3.03;;;16.00;99.90;;;;;;4996086;28;20205;-79
2021/05/28 09:46:57;;;;;;;6.00;3.53;;;15.90;95.90;;;;;;4996650;28;20174;-79
2021/05/28 09:49:28;;;;;;;4.33;2.93;;;16.10;1.00;;;;;;4995786;28;20627;-79
2021/05/28 09:52:18;;;;;;;4.87;3.40;;;16.10;1.00;;;;;;4996999;28;20197;-78
2021/05/28 09:54:59;;;;;;;7.27;3.10;;;15.90;1.00;;;;;;4998069;28;20182;-78
2021/05/28 09:57:35;;;;;;;5.73;2.97;;;16.00;1.00;;;;;;4997766;28;20372;-78
2021/05/28 10:00:08;;;;;;;5.80;3.30;;;16.30;1.00;;;;;;4996001;28;20627;-79
2021/05/28 10:02:37;;;;;;;7.13;2.90;;;16.20;1.00;;;;;;4996343;28;20194;-79
2021/05/28 10:05:05;;;;;;;6.90;3.10;;;16.00;1.00;;;;;;4997097;28;20644;-78
2021/05/28 10:07:31;;;;;;;5.00;2.50;;;16.00;1.00;;;;;;4996731;28;20190;-78
2021/05/28 10:09:57;;;;;;;4.60;2.87;;;16.10;1.00;;;;;;4996776;28;20524;-78
2021/05/28 10:12:24;;;;;;;6.80;3.40;;;16.10;99.90;;;;;;5004540;28;20182;-78
2021/05/28 10:14:51;;;;;;;4.40;2.77;;;16.00;1.00;;;;;;4994658;28;20176;-77
2021/05/28 10:17:18;;;;;;;4.93;2.67;;;16.10;1.00;;;;;;4996377;28;20175;-78
2021/05/28 10:19:48;;;;;;;7.27;3.10;;;16.10;99.90;;;;;;4998443;28;20234;-78
2021/05/28 10:22:16;;;;;;;5.53;3.10;;;16.10;1.00;;;;;;4996293;28;20175;-79
2021/05/28 10:24:43;;;;;;;7.93;2.97;;;16.30;1.00;;;;;;4996235;28;20173;-77
2021/05/28 10:27:09;;;;;;;7.97;3.70;;;16.50;99.90;;;;;;5006814;28;20253;-79
2021/05/28 10:29:35;;;;;;;5.97;3.03;;;16.60;56.20;;;;;;5015930;28;20166;-77
2021/05/28 10:32:12;;;;;;;5.00;2.90;;;16.90;1.00;;;;;;5013969;28;20186;-77
2021/05/28 10:35:03;;;;;;;4.97;3.17;;;16.80;99.90;;;;;;5015862;28;20177;-79
2021/05/28 10:37:29;;;;;;;7.77;3.40;;;16.70;99.90;;;;;;5006132;28;20182;-80
2021/05/28 10:39:55;;;;;;;4.53;3.03;;;16.70;1.00;;;;;;5013018;28;20182;-78
2021/05/28 10:42:21;;;;;;;5.70;3.23;;;16.50;1.00;;;;;;5015033;28;20205;-78
2021/05/28 10:44:48;;;;;;;5.97;3.00;;;16.70;1.00;;;;;;5015390;28;20537;-77
2021/05/28 10:47:14;;;;;;;6.90;3.33;;;16.80;99.90;;;;;;5014303;28;20171;-79
2021/05/28 10:49:44;;;;;;;7.17;3.33;;;16.90;1.00;;;;;;5015459;28;20659;-79
2021/05/28 10:52:27;;;;;;;5.30;2.57;;;17.20;99.90;;;;;;5014237;28;20627;-78
2021/05/28 10:55:02;;;;;;;10.87;3.10;;;17.00;13.60;;;;;;5015087;28;20522;-78
2021/05/28 10:57:33;;;;;;;5.97;2.77;;;17.00;99.90;;;;;;5000061;28;20178;-78
2021/05/28 11:00:09;;;;;;;6.53;2.70;;;17.10;1.00;;;;;;5010387;28;20178;-79
2021/05/28 11:02:52;;;;;;;3.97;2.67;;;17.00;1.00;;;;;;4994672;28;20559;-79
2021/05/28 11:05:38;;;;;;;5.30;2.30;;;17.00;1.00;;;;;;4995191;28;20493;-76
2021/05/28 11:08:24;;;;;;;5.83;2.77;;;17.10;99.90;;;;;;5012677;28;20599;-78
2021/05/28 11:10:50;;;;;;;5.20;2.53;;;17.10;1.00;;;;;;4996203;28;20203;-80
2021/05/28 11:13:16;;;;;;;6.63;2.53;;;17.20;99.90;;;;;;4994815;28;20258;-78
2021/05/28 11:15:56;;;;;;;7.70;2.53;;;17.50;99.90;;;;;;4996157;28;20224;-78
2021/05/28 11:18:29;;;;;;;4.40;2.47;;;18.10;99.90;;;;;;4994826;28;20195;-78
2021/05/28 11:21:14;;;;;;;5.37;2.47;;;18.40;15.40;;;;;;4994990;28;20182;-78
2021/05/28 11:23:42;;;;;;;6.27;3.17;;;18.00;99.90;;;;;;4994130;28;20214;-78
2021/05/28 11:26:15;;;;;;;5.07;3.00;;;17.90;99.90;;;;;;4993608;28;20232;-78
2021/05/28 11:28:55;;;;;;;4.80;3.07;;;17.80;99.90;;;;;;4991361;28;20194;-76
2021/05/28 11:31:23;;;;;;;7.40;2.60;;;18.10;99.90;;;;;;4991398;28;20168;-79
2021/05/28 11:33:56;;;;;;;4.93;2.77;;;18.10;22.10;;;;;;4994501;28;20182;-78
2021/05/28 11:36:27;;;;;;;5.73;2.90;;;17.80;36.00;;;;;;4994297;28;20259;-79
2021/05/28 11:38:58;;;;;;;4.93;2.90;;;17.70;99.90;;;;;;4994340;28;20170;-77
2021/05/28 11:41:44;;;;;;;5.47;3.10;;;18.00;99.90;;;;;;4994922;28;20236;-77
2021/05/28 11:44:11;;;;;;;5.07;2.40;;;18.00;99.90;;;;;;5009084;28;20398;-77
2021/05/28 11:46:40;;;;;;;4.80;2.70;;;18.00;99.90;;;;;;4996215;28;20175;-77
2021/05/28 11:49:07;;;;;;;5.00;2.90;;;17.90;99.90;;;;;;5013240;28;20202;-77
2021/05/28 11:51:33;;;;;;;5.50;3.40;;;17.90;99.90;;;;;;4997533;28;20177;-76
2021/05/28 11:53:58;;;;;;;7.03;3.50;;;18.00;99.90;;;;;;4998048;28;20179;-78
2021/05/28 11:56:26;;;;;;;4.10;2.83;;;17.90;94.00;;;;;;5001684;28;20179;-76
2021/05/28 11:58:52;;;;;;;5.27;2.93;;;17.90;1.00;;;;;;5004238;28;20177;-77
2021/05/28 12:01:20;;;;;;;4.67;3.10;;;17.90;1.00;;;;;;4999016;28;20178;-78
2021/05/28 12:03:46;;;;;;;6.00;3.00;;;18.00;1.00;;;;;;4989184;28;20249;-78
2021/05/28 12:06:11;;;;;;;6.37;3.30;;;18.10;90.70;;;;;;4980172;28;20609;-79
2021/05/28 12:08:40;;;;;;;5.37;3.83;;;18.20;1.00;;;;;;4980064;28;20202;-79
2021/05/28 12:11:10;;;;;;;6.60;2.87;;;18.30;1.00;;;;;;4994295;28;20202;-79
2021/05/28 12:13:40;;;;;;;4.77;2.87;;;18.50;1.00;;;;;;4992882;28;20184;-78
2021/05/28 12:16:09;;;;;;;7.67;3.90;;;18.60;1.00;;;;;;4998934;28;20248;-77
2021/05/28 12:18:35;;;;;;;6.97;3.83;;;18.40;1.00;;;;;;5006762;28;20172;-80
2021/05/28 12:21:05;;;;;;;5.77;3.50;;;18.40;1.00;;;;;;4998480;28;20609;-79
2021/05/28 12:23:44;;;;;;;6.87;4.33;;;18.50;1.00;;;;;;4992671;28;20210;-78
2021/05/28 12:26:19;;;;;;;7.37;4.80;;;18.50;34.30;;;;;;4991673;28;20293;-78
2021/05/28 12:28:54;;;;;;;6.37;4.20;;;18.60;46.40;;;;;;4994512;28;20670;-80
2021/05/28 12:31:23;;;;;;;7.47;3.87;;;18.70;1.00;;;;;;4994644;28;20190;-80
2021/05/28 12:33:56;;;;;;;9.40;5.57;;;19.00;1.00;;;;;;4993873;28;20171;-79
2021/05/28 12:36:30;;;;;;;7.77;5.07;;;19.00;99.90;;;;;;4992236;28;20550;-79
2021/05/28 12:38:56;;;;;;;8.40;6.10;;;18.90;99.90;;;;;;4995099;28;20182;-79
2021/05/28 12:41:26;;;;;;;9.13;5.83;;;18.80;99.90;;;;;;4998369;28;20187;-78
2021/05/28 12:43:53;;;;;;;8.90;5.90;;;18.50;99.90;;;;;;4999381;28;20270;-79
2021/05/28 12:46:24;;;;;;;10.33;5.37;;;18.60;99.90;;;;;;4998323;28;20175;-78
2021/05/28 12:48:56;;;;;;;5.73;4.43;;;18.60;99.90;;;;;;4999369;28;20163;-79
2021/05/28 12:51:52;;;;;;;8.90;5.60;;;18.90;1.00;;;;;;4999505;28;20173;-79
2021/05/28 12:54:27;;;;;;;7.60;5.90;;;19.00;1.00;;;;;;4996785;28;20242;-78
2021/05/28 12:56:58;;;;;;;7.33;5.87;;;18.90;1.00;;;;;;4997373;28;20187;-80
2021/05/28 12:59:28;;;;;;;8.33;5.80;;;18.80;99.90;;;;;;4996396;28;20207;-77
2021/05/28 13:01:56;;;;;;;7.90;5.90;;;18.70;99.90;;;;;;4997132;28;20175;-78
2021/05/28 13:04:22;;;;;;;11.43;5.63;;;18.80;98.90;;;;;;4994472;28;20221;-78
2021/05/28 13:06:55;;;;;;;10.17;6.50;;;18.90;1.00;;;;;;4995505;28;20265;-77
2021/05/28 13:09:30;;;;;;;9.90;6.33;;;18.70;1.00;;;;;;4995726;28;20612;-78
2021/05/28 13:12:02;;;;;;;7.43;5.63;;;18.80;1.00;;;;;;4994552;28;20174;-79
2021/05/28 13:14:32;;;;;;;8.00;5.87;;;19.00;21.30;;;;;;4996609;28;20175;-79
2021/05/28 13:17:17;;;;;;;10.40;7.37;;;19.20;2.70;;;;;;4995474;28;20559;-79
2021/05/28 13:19:54;;;;;;;9.63;6.83;;;19.40;1.00;;;;;;5007959;28;20242;-80
2021/05/28 13:22:34;;;;;;;10.40;6.53;;;19.30;1.00;;;;;;5006077;28;20170;-79
2021/05/28 13:25:18;;;;;;;9.50;6.03;;;19.20;1.00;;;;;;4993980;28;20180;-80
2021/05/28 13:27:58;;;;;;;10.07;5.80;;;19.20;1.00;;;;;;4991772;28;20644;-78
2021/05/28 13:30:32;;;;;;;13.23;6.70;;;19.20;1.00;;;;;;4995568;28;20163;-79
2021/05/28 13:33:15;;;;;;;11.23;6.90;;;19.20;1.00;;;;;;4995801;28;20171;-79
2021/05/28 13:35:42;;;;;;;10.20;6.93;;;19.10;1.00;;;;;;4996376;28;20233;-78
2021/05/28 13:38:07;;;;;;;11.23;6.83;;;19.10;1.00;;;;;;4995857;28;20198;-79
2021/05/28 13:40:33;;;;;;;11.73;7.03;;;19.20;4.00;;;;;;4994294;28;20226;-78
2021/05/28 13:42:59;;;;;;;9.77;6.93;;;19.30;1.00;;;;;;4995369;28;20210;-77
2021/05/28 13:45:24;;;;;;;13.57;7.67;;;19.30;1.00;;;;;;4994341;28;20721;-80
2021/05/28 13:47:50;;;;;;;11.17;7.57;;;19.20;1.00;;;;;;4995542;28;20179;-78
2021/05/28 13:50:16;;;;;;;10.97;6.97;;;19.20;1.00;;;;;;4992981;28;20528;-78
2021/05/28 13:52:42;;;;;;;8.87;6.17;;;19.30;1.00;;;;;;4996479;28;20248;-77
2021/05/28 13:55:09;;;;;;;10.87;6.73;;;19.20;1.00;;;;;;4995868;28;20179;-79
2021/05/28 13:57:34;;;;;;;9.17;5.87;;;18.80;1.00;;;;;;4994544;28;20186;-78
2021/05/28 14:00:00;;;;;;;9.53;5.93;;;18.90;1.00;;;;;;4995221;28;20654;-77
2021/05/28 14:02:26;;;;;;;10.47;5.90;;;19.00;1.00;;;;;;4995320;28;20257;-78
2021/05/28 14:04:52;;;;;;;9.30;6.10;;;19.20;1.00;;;;;;4995778;28;20230;-77
2021/05/28 14:07:17;;;;;;;6.43;5.23;;;19.70;1.00;;;;;;4995149;28;20242;-79
2021/05/28 14:09:44;;;;;;;9.03;6.20;;;19.80;1.00;;;;;;5009390;28;20199;-78
2021/05/28 14:12:10;;;;;;;8.13;5.27;;;20.10;1.00;;;;;;4994949;28;20228;-80
2021/05/28 14:14:39;;;;;;;7.57;5.20;;;20.00;1.00;;;;;;4995441;28;20180;-78
2021/05/28 14:17:05;;;;;;;9.47;5.43;;;19.90;1.00;;;;;;4995336;28;20270;-80
2021/05/28 14:19:32;;;;;;;10.43;5.40;;;19.90;1.00;;;;;;4994713;28;20172;-79
2021/05/28 14:21:58;;;;;;;7.50;5.03;;;20.10;1.00;;;;;;4994586;28;20171;-79
2021/05/28 14:24:24;;;;;;;7.10;5.30;;;20.10;1.00;;;;;;4993987;28;20228;-79
2021/05/28 14:26:50;;;;;;;9.67;6.07;;;20.50;1.00;;;;;;4999288;28;20183;-80
2021/05/28 14:29:16;;;;;;;9.43;6.20;;;20.10;1.00;;;;;;4995382;28;20267;-79
2021/05/28 14:31:42;;;;;;;6.50;5.53;;;20.10;1.00;;;;;;4994746;28;20267;-78
2021/05/28 14:34:08;;;;;;;9.40;5.60;;;19.90;1.00;;;;;;4994601;28;20575;-78
2021/05/28 14:36:35;;;;;;;7.37;5.43;;;20.00;1.00;;;;;;4995531;28;20495;-78
2021/05/28 14:39:05;;;;;;;8.23;5.17;;;19.90;1.00;;;;;;4996163;28;20179;-77
2021/05/28 14:41:30;;;;;;;6.83;4.70;;;20.20;1.00;;;;;;5002766;28;20199;-76
2021/05/28 14:43:57;;;;;;;7.53;4.73;;;20.80;1.00;;;;;;4999075;28;20269;-78
2021/05/28 14:46:22;;;;;;;6.63;4.03;;;21.20;1.00;;;;;;4994620;28;20165;-78
2021/05/28 14:48:49;;;;;;;5.00;2.97;;;21.30;99.90;;;;;;4994969;28;20252;-78
2021/05/28 14:51:15;;;;;;;6.43;3.93;;;21.60;99.90;;;;;;4994741;28;20189;-79
2021/05/28 14:53:41;;;;;;;7.67;3.90;;;21.90;99.90;;;;;;4994293;28;20194;-77
2021/05/28 14:56:07;;;;;;;8.67;4.17;;;21.70;99.90;;;;;;4995392;28;20253;-78
2021/05/28 14:58:33;;;;;;;8.63;4.23;;;21.70;99.90;;;;;;4995004;28;20204;-76
2021/05/28 15:01:00;;;;;;;7.93;4.30;;;21.40;99.90;;;;;;5008421;28;20174;-77
2021/05/28 15:03:28;;;;;;;7.37;4.23;;;21.40;99.90;;;;;;5000628;28;20220;-78
2021/05/28 15:05:54;;;;;;;4.73;3.10;;;21.20;99.90;;;;;;4993152;28;20188;-77
2021/05/28 15:08:21;;;;;;;5.73;3.13;;;21.00;99.90;;;;;;4993863;28;20197;-78
2021/05/28 15:10:48;;;;;;;4.83;3.33;;;21.00;99.90;;;;;;4993513;28;20192;-80
2021/05/28 15:13:14;;;;;;;5.43;3.63;;;20.70;99.90;;;;;;4993153;28;20202;-78
2021/05/28 15:15:40;;;;;;;5.17;3.73;;;20.60;99.90;;;;;;4991969;28;20215;-78
2021/05/28 15:18:08;;;;;;;5.67;3.53;;;20.40;99.90;;;;;;5007705;28;20204;-78
2021/05/28 15:20:35;;;;;;;4.03;2.80;;;20.30;99.90;;;;;;4993739;28;20181;-77
2021/05/28 15:23:01;;;;;;;5.87;3.40;;;20.20;99.90;;;;;;4996001;28;20238;-77
2021/05/28 15:25:27;;;;;;;5.53;3.00;;;20.40;99.90;;;;;;4996596;28;20210;-78
2021/05/28 15:27:53;;;;;;;5.70;3.13;;;20.50;99.90;;;;;;4996298;28;20193;-78
2021/05/28 15:30:19;;;;;;;3.90;2.80;;;20.70;99.90;;;;;;4993323;28;20176;-77
2021/05/28 15:32:44;;;;;;;3.73;2.73;;;20.70;99.90;;;;;;4993546;28;20168;-78
2021/05/28 15:35:10;;;;;;;5.20;2.90;;;20.60;99.90;;;;;;4993440;28;20649;-78
2021/05/28 15:37:37;;;;;;;4.30;3.07;;;20.80;99.90;;;;;;4991676;28;20176;-76
2021/05/28 15:40:05;;;;;;;6.00;2.97;;;20.90;99.90;;;;;;4993487;28;20179;-77
2021/05/28 15:42:32;;;;;;;5.67;4.70;;;21.00;99.90;;;;;;4992890;28;20216;-76
2021/05/28 15:45:03;;;;;;;6.20;4.27;;;20.90;99.90;;;;;;4992555;28;20655;-79
2021/05/28 15:47:28;;;;;;;5.37;3.27;;;20.90;99.90;;;;;;4991877;28;20180;-78
2021/05/28 15:49:54;;;;;;;7.10;3.60;;;20.90;99.90;;;;;;4992509;28;20178;-78
2021/05/28 15:52:20;;;;;;;7.37;3.63;;;20.80;99.90;;;;;;4992698;28;20175;-77
2021/05/28 15:54:46;;;;;;;5.07;3.93;;;20.60;99.90;;;;;;4993013;28;20656;-78
2021/05/28 15:57:12;;;;;;;7.20;3.83;;;20.70;99.90;;;;;;4992882;28;20223;-78
2021/05/28 15:59:37;;;;;;;6.33;4.33;;;20.50;99.90;;;;;;4993028;28;20524;-77
2021/05/28 16:02:03;;;;;;;6.87;3.73;;;20.30;99.90;;;;;;4992244;28;20167;-78
2021/05/28 16:04:30;;;;;;;7.57;3.80;;;20.40;99.90;;;;;;4992267;28;20208;-78
2021/05/28 16:06:56;;;;;;;6.30;3.80;;;20.60;99.90;;;;;;4991047;28;20330;-78
2021/05/28 16:09:22;;;;;;;6.97;4.47;;;20.90;99.90;;;;;;4993545;28;20195;-78
2021/05/28 16:11:49;;;;;;;7.20;5.17;;;20.70;99.90;;;;;;4992305;28;20188;-79
2021/05/28 16:14:16;;;;;;;8.23;5.87;;;20.70;99.90;;;;;;4995784;28;20201;-77
2021/05/28 16:16:41;;;;;;;6.83;5.07;;;20.70;99.90;;;;;;5012237;28;20187;-77
2021/05/28 16:19:07;;;;;;;7.50;4.57;;;20.60;99.90;;;;;;4997075;28;20190;-78
2021/05/28 16:21:33;;;;;;;7.23;4.70;;;20.40;99.90;;;;;;4996940;28;20699;-78
2021/05/28 16:23:59;;;;;;;7.93;5.03;;;20.50;99.90;;;;;;4997160;28;20274;-77
2021/05/28 16:26:24;;;;;;;5.20;4.40;;;20.70;99.90;;;;;;5002393;28;20185;-77
2021/05/28 16:28:50;;;;;;;6.67;5.40;;;20.90;99.90;;;;;;4996981;28;20230;-77
2021/05/28 16:31:16;;;;;;;7.20;4.53;;;20.90;99.90;;;;;;5012877;28;20207;-77
2021/05/28 16:33:42;;;;;;;6.90;5.20;;;21.10;99.90;;;;;;4996838;28;20215;-79
2021/05/28 16:36:08;;;;;;;6.60;4.87;;;21.10;99.90;;;;;;4995936;28;20201;-77
2021/05/28 16:38:34;;;;;;;5.27;4.30;;;20.90;99.90;;;;;;4996023;28;20182;-78
2021/05/28 16:41:02;;;;;;;5.23;4.47;;;20.90;99.90;;;;;;5002835;28;20231;-77
2021/05/28 16:43:28;;;;;;;5.73;4.20;;;20.90;99.90;;;;;;5014684;28;20238;-77
2021/05/28 16:45:54;;;;;;;6.13;4.70;;;20.80;99.90;;;;;;5016332;28;20270;-77
2021/05/28 16:48:20;;;;;;;6.97;5.40;;;20.80;99.90;;;;;;5015878;28;20632;-78
2021/05/28 16:50:55;;;;;;;6.63;4.53;;;20.80;99.90;;;;;;5015466;28;20175;-78
2021/05/28 16:53:21;;;;;;;7.13;5.20;;;20.80;99.90;;;;;;5015624;28;20179;-77
2021/05/28 16:55:47;;;;;;;6.40;4.80;;;20.60;99.90;;;;;;5015987;28;20624;-78
2021/05/28 16:58:14;;;;;;;5.40;4.00;;;20.50;99.90;;;;;;4996138;28;20180;-77
2021/05/28 17:00:39;;;;;;;9.00;4.57;;;20.40;99.90;;;;;;4996811;28;20176;-77
2021/05/28 17:03:06;;;;;;;7.13;5.80;;;20.50;99.90;;;;;;4994604;28;20219;-77
2021/05/28 17:05:33;;;;;;;10.00;7.40;;;20.50;99.90;;;;;;4997051;28;20183;-77
2021/05/28 17:07:59;;;;;;;7.57;6.27;;;20.50;99.90;;;;;;4996877;28;20264;-77
2021/05/28 17:10:25;;;;;;;7.50;6.73;;;20.50;99.90;;;;;;4996299;28;20278;-78
2021/05/28 17:12:51;;;;;;;9.10;7.10;;;20.50;99.90;;;;;;4995631;28;20525;-78
2021/05/28 17:15:17;;;;;;;6.33;5.73;;;20.30;99.90;;;;;;4996458;28;20185;-77
2021/05/28 17:17:42;;;;;;;8.93;7.03;;;20.40;99.90;;;;;;4996151;28;20255;-78
2021/05/28 17:20:09;;;;;;;11.10;7.70;;;20.30;99.90;;;;;;4995486;28;20631;-78
2021/05/28 17:22:35;;;;;;;11.47;8.50;;;20.20;99.90;;;;;;5012466;28;20203;-78
2021/05/28 17:25:01;;;;;;;10.90;8.97;;;20.30;99.90;;;;;;4999193;28;20207;-77
2021/05/28 17:27:27;;;;;;;14.83;12.03;;;20.50;99.90;;;;;;5002644;28;20550;-79